Hellas — J8B3126 — position and weather

sailwx.info

Track history (hours):
 
Tides and Currents Weather Stations Pressure Air Temp Water Temp Dewpoint Dewpoint Depression Visibility Wind Speed Wind Dir Waves Ship Positions

Hellas

Last reported at 2014-Sep-20 09:32 UTC. Time now 2014-Oct-25 21:21 UTC.
Position N 38°31' E 025°40'.
Warning: this ship's position is 35 days out of date.

Length 50 m; draft 4.5 m.

Type: Tow > 200 m length. MMSI: 375113000.

Date/timePositionNaut miles runAvg speedWind from/ knotsBaromVisibWave heightAir tempDewpointWater temp
2014-Sep-20 09:32N 38°31' E 025°40'8 3.9
2014-Sep-20 07:26N 38°26' E 025°31'4 4.2
2014-Sep-20 06:32N 38°24' E 025°27'  
2014-Sep-15 05:28N 36°25' E 015°01'9 4.8
2014-Sep-15 03:33N 36°25' E 014°50'5 4.8
2014-Sep-15 02:34N 36°25' E 014°44'5 4.8
2014-Sep-15 01:29N 36°25' E 014°37'5 4.9
2014-Sep-15 00:33N 36°25' E 014°32'5 4.9
2014-Sep-14 23:31N 36°26' E 014°25'5 5.2
2014-Sep-14 22:31N 36°27' E 014°19'6 5.5
2014-Sep-14 21:24N 36°29' E 014°12'5 6.2
2014-Sep-14 20:31N 36°30' E 014°05'6 6.3
2014-Sep-14 19:34N 36°31' E 013°58'6 6.3
2014-Sep-14 18:34N 36°33' E 013°50'6 6.2
2014-Sep-14 17:32N 36°34' E 013°42'6 6.1
2014-Sep-14 16:28N 36°36' E 013°35'6 5.8
2014-Sep-14 15:28N 36°37' E 013°28'5 5.6
2014-Sep-14 14:32N 36°39' E 013°21'5 5.2
2014-Sep-14 13:34N 36°40' E 013°15'6 4.7
2014-Sep-14 12:15N 36°41' E 013°08'185 5.1
2014-Sep-13 00:12N 38°04' E 009°40'3 4.6
2014-Sep-12 23:32N 38°06' E 009°36'4 4.5
2014-Sep-12 22:33N 38°08' E 009°32'4 4.4
2014-Sep-12 21:33N 38°10' E 009°27'4 4.2
2014-Sep-12 20:34N 38°12' E 009°22'5 4.5
2014-Sep-12 19:32N 38°15' E 009°17'10 5.1
2014-Sep-12 17:32N 38°20' E 009°06'7 5.4
2014-Sep-12 16:18N 38°23' E 008°58'9 5.3
2014-Sep-12 14:33N 38°28' E 008°48'6 5.5
2014-Sep-12 13:29N 38°31' E 008°42'5 5.1
2014-Sep-12 12:33N 38°33' E 008°36'6 4.9
2014-Sep-12 11:17N 38°37' E 008°29'8 4.9
2014-Sep-12 09:33N 38°41' E 008°20'5 4.8
2014-Sep-12 08:32N 38°43' E 008°15'168 4.9
2014-Sep-10 22:27N 40°04' E 005°04'  
Track history (hours):
 
Tides and Currents Weather Stations Pressure Air Temp Water Temp Dewpoint Dewpoint Depression Visibility Wind Speed Wind Dir Waves Ship Positions

Hellas

Last reported at 2014-Sep-20 09:32 UTC. Time now 2014-Oct-25 21:21 UTC.
Position N 38°31' E 025°40'.
Warning: this ship's position is 35 days out of date.

Length 50 m; draft 4.5 m.

Type: Tow > 200 m length. MMSI: 375113000.

Date/timePositionNaut miles runAvg speedWind from/ knotsBaromVisibWave heightAir tempDewpointWater temp
2014-Sep-20 09:32N 38°31' E 025°40'8 3.9
2014-Sep-20 07:26N 38°26' E 025°31'4 4.2
2014-Sep-20 06:32N 38°24' E 025°27'  
2014-Sep-15 05:28N 36°25' E 015°01'9 4.8
2014-Sep-15 03:33N 36°25' E 014°50'5 4.8
2014-Sep-15 02:34N 36°25' E 014°44'5 4.8
2014-Sep-15 01:29N 36°25' E 014°37'5 4.9
2014-Sep-15 00:33N 36°25' E 014°32'5 4.9
2014-Sep-14 23:31N 36°26' E 014°25'5 5.2
2014-Sep-14 22:31N 36°27' E 014°19'6 5.5
2014-Sep-14 21:24N 36°29' E 014°12'5 6.2
2014-Sep-14 20:31N 36°30' E 014°05'6 6.3
2014-Sep-14 19:34N 36°31' E 013°58'6 6.3
2014-Sep-14 18:34N 36°33' E 013°50'6 6.2
2014-Sep-14 17:32N 36°34' E 013°42'6 6.1
2014-Sep-14 16:28N 36°36' E 013°35'6 5.8
2014-Sep-14 15:28N 36°37' E 013°28'5 5.6
2014-Sep-14 14:32N 36°39' E 013°21'5 5.2
2014-Sep-14 13:34N 36°40' E 013°15'6 4.7
2014-Sep-14 12:15N 36°41' E 013°08'185 5.1
2014-Sep-13 00:12N 38°04' E 009°40'3 4.6
2014-Sep-12 23:32N 38°06' E 009°36'4 4.5
2014-Sep-12 22:33N 38°08' E 009°32'4 4.4
2014-Sep-12 21:33N 38°10' E 009°27'4 4.2
2014-Sep-12 20:34N 38°12' E 009°22'5 4.5
2014-Sep-12 19:32N 38°15' E 009°17'10 5.1
2014-Sep-12 17:32N 38°20' E 009°06'7 5.4
2014-Sep-12 16:18N 38°23' E 008°58'9 5.3
2014-Sep-12 14:33N 38°28' E 008°48'6 5.5
2014-Sep-12 13:29N 38°31' E 008°42'5 5.1
2014-Sep-12 12:33N 38°33' E 008°36'6 4.9
2014-Sep-12 11:17N 38°37' E 008°29'8 4.9
2014-Sep-12 09:33N 38°41' E 008°20'5 4.8
2014-Sep-12 08:32N 38°43' E 008°15'168 4.9
2014-Sep-10 22:27N 40°04' E 005°04'  

Dump ship's entire track history